Terminal Aerodrome Forecast
Issued by NWS Wilmington, NC

Home | Current Version | Previous Version | Text Only | Print | Product List | Glossary On
Versions: 1 2 3 4 5 6 7 8 9 10 11 12 13 14 15 16 17 18 19 20 21 22
000
FTUS42 KILM 302322
TAFLBT
TAF
KLBT 302322Z 0100/0124 14005KT P6SM SKC
     FM010100 20003KT P6SM FEW030
     FM010900 00000KT 4SM BR SKC
     FM011200 19006KT P6SM SCT035=

USA.gov is the U.S. government's official web portal to all federal, state and local government web resources and services.